createdAt,value
2023-03-26T00:02:07.319Z,23.70
2023-03-26T00:07:10.570Z,23.65
2023-03-26T00:12:14.764Z,23.58
2023-03-26T00:17:17.494Z,23.49
2023-03-26T00:22:20.587Z,23.41
2023-03-26T00:27:25.253Z,23.34
2023-03-26T00:32:29.579Z,23.27
2023-03-26T00:37:33.763Z,23.20
2023-03-26T00:42:38.262Z,23.11
2023-03-26T00:47:41.200Z,23.05
2023-03-26T00:52:44.977Z,22.99
2023-03-26T00:57:49.236Z,22.91
2023-03-26T01:02:52.008Z,22.83
2023-03-26T01:07:55.191Z,22.77
2023-03-26T01:12:59.476Z,22.71
2023-03-26T01:18:04.868Z,22.68
2023-03-26T01:23:08.875Z,22.61
2023-03-26T01:28:13.623Z,22.58
2023-03-26T01:33:29.768Z,22.54
2023-03-26T01:38:46.507Z,22.47
2023-03-26T01:43:55.499Z,22.41
2023-03-26T01:48:58.290Z,22.37
2023-03-26T01:54:03.061Z,22.34
2023-03-26T01:59:25.643Z,22.28
2023-03-26T02:04:36.244Z,22.24
2023-03-26T02:09:46.260Z,22.18
2023-03-26T02:14:51.470Z,22.13
2023-03-26T02:19:54.246Z,22.09
2023-03-26T02:24:57.148Z,22.05
2023-03-26T02:30:02.368Z,21.99
2023-03-26T02:35:06.811Z,21.95
2023-03-26T02:40:11.930Z,21.93
2023-03-26T02:45:19.297Z,21.86
2023-03-26T02:50:22.076Z,21.81
2023-03-26T02:55:44.791Z,21.76
2023-03-26T03:00:50.728Z,21.76
2023-03-26T03:06:18.784Z,21.72
2023-03-26T03:11:26.946Z,21.67
2023-03-26T03:16:32.173Z,21.65
2023-03-26T03:21:44.344Z,21.61
2023-03-26T03:26:47.596Z,21.58
2023-03-26T03:32:12.150Z,21.56
2023-03-26T03:37:23.498Z,21.52
2023-03-26T03:42:29.759Z,21.51
2023-03-26T03:47:37.941Z,21.50
2023-03-26T03:52:40.795Z,21.46
2023-03-26T03:57:43.852Z,21.45
2023-03-26T04:02:54.805Z,21.41
2023-03-26T04:07:59.969Z,21.37
2023-03-26T04:13:02.948Z,21.35
2023-03-26T04:18:37.441Z,21.35
2023-03-26T04:23:47.439Z,21.34
2023-03-26T04:29:12.468Z,21.33
2023-03-26T04:34:23.990Z,21.29
2023-03-26T04:39:36.229Z,21.27
2023-03-26T04:45:03.035Z,21.25
2023-03-26T04:50:11.129Z,21.24
2023-03-26T04:55:24.970Z,21.21
2023-03-26T05:00:36.940Z,21.19
2023-03-26T05:05:41.711Z,21.16
2023-03-26T05:10:45.620Z,21.13
2023-03-26T05:15:59.069Z,21.11
2023-03-26T05:21:29.226Z,21.09
2023-03-26T05:26:32.245Z,21.07
2023-03-26T05:31:35.120Z,21.07
2023-03-26T05:36:40.659Z,21.06
2023-03-26T05:42:02.553Z,21.03
2023-03-26T05:47:17.292Z,21.02
2023-03-26T05:52:21.822Z,21.01
2023-03-26T05:57:51.316Z,21.00
2023-03-26T06:03:14.778Z,21.00
2023-03-26T06:08:43.601Z,20.99
2023-03-26T06:13:46.972Z,20.98
2023-03-26T06:18:57.253Z,20.99
2023-03-26T06:24:28.128Z,21.01
2023-03-26T06:29:42.663Z,20.99
2023-03-26T06:35:05.262Z,20.97
2023-03-26T06:40:10.888Z,21.01
2023-03-26T06:45:33.957Z,20.99
2023-03-26T06:50:55.608Z,20.99
2023-03-26T06:56:28.835Z,20.99
2023-03-26T07:01:38.941Z,21.01
2023-03-26T07:07:18.162Z,21.05
2023-03-26T07:12:42.819Z,21.09
2023-03-26T07:18:04.453Z,20.25
2023-03-26T07:23:11.641Z,19.92
2023-03-26T07:28:41.415Z,20.77
2023-03-26T07:34:32.432Z,21.04
2023-03-26T07:39:57.672Z,21.21
2023-03-26T07:45:27.723Z,21.30
2023-03-26T07:50:44.393Z,21.37
2023-03-26T07:56:03.800Z,21.45
2023-03-26T08:01:28.047Z,21.48
2023-03-26T08:06:36.367Z,21.52
2023-03-26T08:12:17.507Z,21.57
2023-03-26T08:17:31.225Z,21.60
2023-03-26T08:22:40.971Z,21.62
2023-03-26T08:27:49.596Z,21.66
2023-03-26T08:32:57.401Z,21.70
2023-03-26T08:38:00.254Z,21.70
2023-03-26T08:43:41.202Z,21.71
2023-03-26T08:49:26.725Z,21.73
2023-03-26T08:55:23.844Z,21.75
2023-03-26T09:00:40.840Z,21.78
2023-03-26T09:06:07.429Z,21.81
2023-03-26T09:11:36.519Z,21.84
2023-03-26T09:17:23.935Z,21.86
2023-03-26T09:23:00.285Z,21.88
2023-03-26T09:28:33.507Z,21.89
2023-03-26T09:34:00.063Z,21.91
2023-03-26T09:39:10.849Z,21.90
2023-03-26T09:44:49.710Z,21.89
2023-03-26T09:50:05.294Z,21.88
2023-03-26T09:55:40.145Z,21.87
2023-03-26T10:00:49.187Z,21.86
2023-03-26T10:06:19.808Z,21.89
2023-03-26T10:11:33.642Z,21.94
2023-03-26T10:16:51.856Z,21.99
2023-03-26T10:22:09.257Z,22.00
2023-03-26T10:27:28.198Z,22.04
2023-03-26T10:32:37.865Z,22.07
2023-03-26T10:37:58.044Z,22.08
2023-03-26T10:43:19.712Z,22.11
2023-03-26T10:48:46.795Z,22.11
2023-03-26T10:53:55.110Z,22.17
2023-03-26T10:58:58.281Z,22.25
2023-03-26T11:04:16.214Z,22.25
2023-03-26T11:09:30.642Z,22.26
2023-03-26T11:14:44.098Z,17.14
2023-03-26T11:19:53.277Z,16.25
2023-03-26T11:25:31.036Z,16.22
2023-03-26T11:30:41.312Z,19.19
2023-03-26T11:35:48.278Z,19.97
2023-03-26T11:40:55.906Z,20.41
2023-03-26T11:46:21.431Z,20.71
2023-03-26T11:51:28.157Z,20.91
2023-03-26T11:56:34.928Z,21.05
2023-03-26T12:01:50.292Z,21.16
2023-03-26T12:06:57.571Z,21.26
2023-03-26T12:12:04.949Z,21.36
2023-03-26T12:17:14.218Z,21.45
2023-03-26T12:22:30.556Z,21.48
2023-03-26T12:27:37.927Z,21.50
2023-03-26T12:32:46.689Z,21.55
2023-03-26T12:37:49.886Z,21.57
2023-03-26T12:44:46.871Z,21.60
2023-03-26T12:48:19.827Z,21.58
2023-03-26T12:53:57.803Z,21.59
2023-03-26T12:59:23.349Z,21.60
2023-03-26T13:05:04.928Z,21.62
2023-03-26T13:10:37.261Z,21.63
2023-03-26T13:15:46.912Z,21.63
2023-03-26T13:21:00.012Z,21.65
2023-03-26T13:26:16.631Z,21.67
2023-03-26T13:31:28.939Z,21.65
2023-03-26T13:36:46.667Z,21.64
2023-03-26T13:42:08.165Z,21.63
2023-03-26T13:47:18.308Z,21.61
2023-03-26T13:52:25.895Z,21.61
2023-03-26T13:57:33.522Z,21.62
2023-03-26T14:02:41.578Z,21.63
2023-03-26T14:07:50.014Z,21.63
2023-03-26T14:12:59.188Z,21.62
2023-03-26T14:18:11.206Z,21.63
2023-03-26T14:23:31.660Z,21.62
2023-03-26T14:29:04.733Z,21.63
2023-03-26T14:34:29.221Z,21.62
2023-03-26T14:39:45.979Z,21.62
2023-03-26T14:45:26.645Z,21.63
2023-03-26T14:51:02.322Z,21.62
2023-03-26T14:56:28.133Z,21.64
2023-03-26T15:02:02.017Z,21.62
2023-03-26T15:08:07.220Z,21.62
2023-03-26T15:13:46.724Z,21.62
2023-03-26T15:19:14.489Z,21.63
2023-03-26T15:24:39.189Z,21.65
2023-03-26T15:30:13.481Z,21.62
2023-03-26T15:35:36.739Z,21.62
2023-03-26T15:40:54.512Z,21.60
2023-03-26T15:46:32.162Z,21.63
2023-03-26T15:51:46.364Z,21.64
2023-03-26T15:57:01.759Z,21.64
2023-03-26T16:02:22.628Z,21.63
2023-03-26T16:07:38.913Z,21.64
2023-03-26T16:12:56.692Z,21.62
2023-03-26T16:18:22.519Z,21.61
2023-03-26T16:23:28.570Z,21.58
2023-03-26T16:28:37.488Z,21.59
2023-03-26T16:33:49.065Z,21.55
2023-03-26T16:39:03.704Z,21.51
2023-03-26T16:44:19.284Z,21.49
2023-03-26T16:49:35.979Z,21.48
2023-03-26T17:00:07.678Z,21.44
2023-03-26T17:05:21.290Z,21.42
2023-03-26T17:10:33.742Z,21.42
2023-03-26T17:15:47.985Z,21.42
2023-03-26T17:21:01.459Z,21.41
2023-03-26T17:26:13.720Z,21.38
2023-03-26T17:31:36.879Z,21.38
2023-03-26T17:36:46.572Z,21.36
2023-03-26T17:42:04.447Z,21.37
2023-03-26T17:47:19.896Z,21.35
2023-03-26T17:52:27.604Z,21.35
2023-03-26T17:57:41.853Z,21.34
2023-03-26T18:02:50.949Z,21.33
2023-03-26T18:08:21.272Z,21.39
2023-03-26T18:13:46.935Z,21.41
2023-03-26T18:18:56.968Z,21.39
2023-03-26T18:24:00.589Z,21.42
2023-03-26T18:29:21.675Z,21.43
2023-03-26T18:34:27.113Z,21.49
2023-03-26T18:39:30.049Z,21.57
2023-03-26T18:44:35.973Z,21.65
2023-03-26T18:49:42.957Z,21.72
2023-03-26T18:54:49.684Z,21.80
2023-03-26T18:59:54.118Z,21.86
2023-03-26T19:04:58.365Z,21.93
2023-03-26T19:10:01.788Z,22.00
2023-03-26T19:15:07.656Z,22.06
2023-03-26T19:20:19.487Z,22.12
2023-03-26T19:25:26.009Z,22.17
2023-03-26T19:30:32.757Z,22.24
2023-03-26T19:35:40.408Z,22.28
2023-03-26T19:40:45.001Z,22.31
2023-03-26T19:45:59.192Z,22.37
2023-03-26T19:51:07.534Z,22.41
2023-03-26T19:56:18.595Z,22.40
2023-03-26T20:01:25.004Z,22.50
2023-03-26T20:06:42.632Z,22.55
2023-03-26T20:11:48.124Z,22.58
2023-03-26T20:16:51.424Z,22.61
2023-03-26T20:21:57.019Z,22.64
2023-03-26T20:27:00.611Z,22.58
2023-03-26T20:32:06.354Z,22.68
2023-03-26T20:37:10.558Z,22.73
2023-03-26T20:42:15.791Z,22.77
2023-03-26T20:47:18.908Z,22.73
2023-03-26T20:52:25.501Z,22.84
2023-03-26T20:57:28.333Z,22.84
2023-03-26T21:02:31.250Z,22.83
2023-03-26T21:07:35.581Z,22.91
2023-03-26T21:12:45.032Z,22.93
2023-03-26T21:17:48.541Z,22.79
2023-03-26T21:23:03.944Z,22.84
2023-03-26T21:28:29.137Z,22.95
2023-03-26T21:33:38.521Z,22.94
2023-03-26T21:38:44.593Z,23.06
2023-03-26T21:43:47.321Z,23.15
2023-03-26T21:48:50.658Z,23.19
2023-03-26T21:53:55.494Z,23.23
2023-03-26T21:59:05.939Z,23.30
2023-03-26T22:04:14.577Z,23.04
2023-03-26T22:09:26.371Z,23.22
2023-03-26T22:14:37.045Z,23.27
2023-03-26T22:19:39.775Z,23.28
2023-03-26T22:24:43.922Z,23.28
2023-03-26T22:29:47.291Z,23.28
2023-03-26T22:34:52.012Z,23.26
2023-03-26T22:39:56.077Z,23.25
2023-03-26T22:44:58.789Z,23.22
2023-03-26T22:50:01.994Z,23.19
2023-03-26T22:55:06.771Z,23.15
2023-03-26T23:00:16.192Z,23.09
2023-03-26T23:05:19.091Z,23.01
2023-03-26T23:10:23.977Z,22.96
2023-03-26T23:15:26.851Z,22.89
2023-03-26T23:20:30.786Z,22.83
2023-03-26T23:25:35.076Z,22.78
2023-03-26T23:30:37.794Z,22.71
2023-03-26T23:35:44.032Z,22.67
2023-03-26T23:40:57.194Z,22.61
2023-03-26T23:46:00.569Z,22.59
2023-03-26T23:51:04.352Z,22.54
2023-03-26T23:56:13.514Z,22.50
